sensor_id;sensor_type;location;lat;lon;timestamp;P1;durP1;ratioP1;P2;durP2;ratioP2
52284;SDS011;38238;53.304;6.606;2023-02-15T00:00:20;232.20;;;38.13;;
52284;SDS011;38238;53.304;6.606;2023-02-15T00:02:45;195.32;;;30.38;;
52284;SDS011;38238;53.304;6.606;2023-02-15T00:05:11;212.43;;;35.28;;
52284;SDS011;38238;53.304;6.606;2023-02-15T00:07:37;202.85;;;31.70;;
52284;SDS011;38238;53.304;6.606;2023-02-15T00:10:02;197.05;;;29.73;;
52284;SDS011;38238;53.304;6.606;2023-02-15T00:12:29;79.72;;;23.50;;
52284;SDS011;38238;53.304;6.606;2023-02-15T00:14:54;99.82;;;24.67;;
52284;SDS011;38238;53.304;6.606;2023-02-15T00:17:20;85.90;;;21.63;;
52284;SDS011;38238;53.304;6.606;2023-02-15T00:19:46;107.18;;;23.52;;
52284;SDS011;38238;53.304;6.606;2023-02-15T00:22:12;44.65;;;18.80;;
52284;SDS011;38238;53.304;6.606;2023-02-15T00:24:37;74.18;;;19.08;;
52284;SDS011;38238;53.304;6.606;2023-02-15T00:27:03;37.47;;;18.60;;
52284;SDS011;38238;53.304;6.606;2023-02-15T00:29:29;75.63;;;21.83;;
52284;SDS011;38238;53.304;6.606;2023-02-15T00:31:55;139.63;;;25.38;;
52284;SDS011;38238;53.304;6.606;2023-02-15T00:34:22;171.48;;;28.33;;
52284;SDS011;38238;53.304;6.606;2023-02-15T00:36:49;95.90;;;23.90;;
52284;SDS011;38238;53.304;6.606;2023-02-15T00:39:15;87.75;;;23.52;;
52284;SDS011;38238;53.304;6.606;2023-02-15T00:41:42;60.85;;;19.65;;
52284;SDS011;38238;53.304;6.606;2023-02-15T00:44:08;27.35;;;17.33;;
52284;SDS011;38238;53.304;6.606;2023-02-15T00:46:35;89.82;;;20.35;;
52284;SDS011;38238;53.304;6.606;2023-02-15T00:49:01;90.55;;;22.33;;
52284;SDS011;38238;53.304;6.606;2023-02-15T00:51:27;24.40;;;17.92;;
52284;SDS011;38238;53.304;6.606;2023-02-15T00:53:53;41.80;;;18.52;;
52284;SDS011;38238;53.304;6.606;2023-02-15T00:56:19;64.50;;;19.67;;
52284;SDS011;38238;53.304;6.606;2023-02-15T00:58:44;118.68;;;24.80;;
52284;SDS011;38238;53.304;6.606;2023-02-15T01:01:11;60.95;;;20.90;;
52284;SDS011;38238;53.304;6.606;2023-02-15T01:03:38;74.18;;;23.55;;
52284;SDS011;38238;53.304;6.606;2023-02-15T01:06:06;153.23;;;28.75;;
52284;SDS011;38238;53.304;6.606;2023-02-15T01:08:32;103.65;;;22.38;;
52284;SDS011;38238;53.304;6.606;2023-02-15T01:11:05;49.13;;;19.20;;
52284;SDS011;38238;53.304;6.606;2023-02-15T01:13:32;96.60;;;22.42;;
52284;SDS011;38238;53.304;6.606;2023-02-15T01:15:58;56.17;;;21.52;;
52284;SDS011;38238;53.304;6.606;2023-02-15T01:18:24;138.45;;;25.10;;
52284;SDS011;38238;53.304;6.606;2023-02-15T01:20:49;46.67;;;17.70;;
52284;SDS011;38238;53.304;6.606;2023-02-15T01:23:15;52.40;;;19.38;;
52284;SDS011;38238;53.304;6.606;2023-02-15T01:25:41;51.13;;;18.98;;
52284;SDS011;38238;53.304;6.606;2023-02-15T01:28:06;217.50;;;32.60;;
52284;SDS011;38238;53.304;6.606;2023-02-15T01:30:32;239.20;;;32.78;;
52284;SDS011;38238;53.304;6.606;2023-02-15T01:32:58;226.57;;;29.15;;
52284;SDS011;38238;53.304;6.606;2023-02-15T01:35:26;38.80;;;18.80;;
52284;SDS011;38238;53.304;6.606;2023-02-15T01:37:52;222.15;;;30.08;;
52284;SDS011;38238;53.304;6.606;2023-02-15T01:40:18;125.20;;;23.88;;
52284;SDS011;38238;53.304;6.606;2023-02-15T01:42:44;153.85;;;26.23;;
52284;SDS011;38238;53.304;6.606;2023-02-15T01:47:47;116.97;;;27.47;;
52284;SDS011;38238;53.304;6.606;2023-02-15T01:55:38;133.85;;;27.17;;
52284;SDS011;38238;53.304;6.606;2023-02-15T01:58:07;104.47;;;24.55;;
52284;SDS011;38238;53.304;6.606;2023-02-15T02:00:33;49.80;;;19.40;;
52284;SDS011;38238;53.304;6.606;2023-02-15T02:03:00;18.92;;;16.63;;
52284;SDS011;38238;53.304;6.606;2023-02-15T02:05:26;35.95;;;17.38;;
52284;SDS011;38238;53.304;6.606;2023-02-15T02:07:54;22.77;;;15.98;;
52284;SDS011;38238;53.304;6.606;2023-02-15T02:10:23;39.70;;;17.30;;
52284;SDS011;38238;53.304;6.606;2023-02-15T02:12:51;211.95;;;28.50;;
52284;SDS011;38238;53.304;6.606;2023-02-15T02:15:21;50.42;;;20.77;;
52284;SDS011;38238;53.304;6.606;2023-02-15T02:20:47;143.27;;;27.60;;
52284;SDS011;38238;53.304;6.606;2023-02-15T02:26:34;266.20;;;37.72;;
52284;SDS011;38238;53.304;6.606;2023-02-15T02:41:16;128.68;;;25.90;;
52284;SDS011;38238;53.304;6.606;2023-02-15T02:46:00;191.70;;;27.77;;
52284;SDS011;38238;53.304;6.606;2023-02-15T02:48:32;118.80;;;23.38;;
52284;SDS011;38238;53.304;6.606;2023-02-15T02:50:58;249.73;;;30.77;;
52284;SDS011;38238;53.304;6.606;2023-02-15T02:53:24;105.03;;;26.02;;
52284;SDS011;38238;53.304;6.606;2023-02-15T02:56:03;83.57;;;22.17;;
52284;SDS011;38238;53.304;6.606;2023-02-15T02:58:39;228.82;;;34.05;;
52284;SDS011;38238;53.304;6.606;2023-02-15T03:01:21;237.80;;;31.25;;
52284;SDS011;38238;53.304;6.606;2023-02-15T03:03:56;247.15;;;34.45;;
52284;SDS011;38238;53.304;6.606;2023-02-15T03:06:36;226.40;;;33.80;;
52284;SDS011;38238;53.304;6.606;2023-02-15T03:11:48;194.18;;;29.58;;
52284;SDS011;38238;53.304;6.606;2023-02-15T03:14:14;97.43;;;24.05;;
52284;SDS011;38238;53.304;6.606;2023-02-15T03:16:43;93.97;;;22.80;;
52284;SDS011;38238;53.304;6.606;2023-02-15T03:19:16;219.15;;;34.45;;
52284;SDS011;38238;53.304;6.606;2023-02-15T03:21:48;204.95;;;31.25;;
52284;SDS011;38238;53.304;6.606;2023-02-15T03:24:36;234.88;;;34.13;;
52284;SDS011;38238;53.304;6.606;2023-02-15T03:27:17;537.63;;;65.78;;
52284;SDS011;38238;53.304;6.606;2023-02-15T03:29:46;410.05;;;42.72;;
52284;SDS011;38238;53.304;6.606;2023-02-15T03:32:16;365.00;;;42.60;;
52284;SDS011;38238;53.304;6.606;2023-02-15T03:34:43;242.95;;;35.08;;
52284;SDS011;38238;53.304;6.606;2023-02-15T03:39:54;268.50;;;34.95;;
52284;SDS011;38238;53.304;6.606;2023-02-15T03:42:48;137.07;;;24.95;;
52284;SDS011;38238;53.304;6.606;2023-02-15T03:45:24;260.45;;;30.00;;
52284;SDS011;38238;53.304;6.606;2023-02-15T03:47:53;213.60;;;27.83;;
52284;SDS011;38238;53.304;6.606;2023-02-15T03:50:24;49.92;;;20.65;;
52284;SDS011;38238;53.304;6.606;2023-02-15T03:53:17;178.43;;;27.92;;
52284;SDS011;38238;53.304;6.606;2023-02-15T03:55:54;274.63;;;34.90;;
52284;SDS011;38238;53.304;6.606;2023-02-15T03:58:20;161.60;;;28.40;;
52284;SDS011;38238;53.304;6.606;2023-02-15T04:01:10;112.60;;;26.65;;
52284;SDS011;38238;53.304;6.606;2023-02-15T04:04:10;294.60;;;36.40;;
52284;SDS011;38238;53.304;6.606;2023-02-15T04:06:41;258.35;;;35.17;;
52284;SDS011;38238;53.304;6.606;2023-02-15T04:09:07;193.20;;;29.52;;
52284;SDS011;38238;53.304;6.606;2023-02-15T04:11:51;90.60;;;22.50;;
52284;SDS011;38238;53.304;6.606;2023-02-15T04:14:16;152.45;;;27.83;;
52284;SDS011;38238;53.304;6.606;2023-02-15T04:17:00;60.72;;;21.30;;
52284;SDS011;38238;53.304;6.606;2023-02-15T04:19:26;65.50;;;23.42;;
52284;SDS011;38238;53.304;6.606;2023-02-15T04:22:10;115.05;;;24.60;;
52284;SDS011;38238;53.304;6.606;2023-02-15T04:24:54;43.90;;;19.80;;
52284;SDS011;38238;53.304;6.606;2023-02-15T04:27:49;48.88;;;22.70;;
52284;SDS011;38238;53.304;6.606;2023-02-15T04:30:17;36.45;;;19.67;;
52284;SDS011;38238;53.304;6.606;2023-02-15T04:32:44;76.60;;;22.70;;
52284;SDS011;38238;53.304;6.606;2023-02-15T04:35:10;31.13;;;20.80;;
52284;SDS011;38238;53.304;6.606;2023-02-15T04:37:37;34.92;;;20.17;;
52284;SDS011;38238;53.304;6.606;2023-02-15T04:40:04;53.92;;;21.90;;
52284;SDS011;38238;53.304;6.606;2023-02-15T04:42:31;72.43;;;22.35;;
52284;SDS011;38238;53.304;6.606;2023-02-15T04:44:57;46.13;;;22.23;;
52284;SDS011;38238;53.304;6.606;2023-02-15T04:47:23;24.40;;;20.25;;
52284;SDS011;38238;53.304;6.606;2023-02-15T04:49:49;22.50;;;20.20;;
52284;SDS011;38238;53.304;6.606;2023-02-15T04:52:14;22.20;;;19.77;;
52284;SDS011;38238;53.304;6.606;2023-02-15T04:54:42;23.48;;;19.52;;
52284;SDS011;38238;53.304;6.606;2023-02-15T04:57:07;21.63;;;19.48;;
52284;SDS011;38238;53.304;6.606;2023-02-15T04:59:33;21.15;;;18.60;;
52284;SDS011;38238;53.304;6.606;2023-02-15T05:01:59;22.70;;;20.20;;
52284;SDS011;38238;53.304;6.606;2023-02-15T05:04:24;22.05;;;19.85;;
52284;SDS011;38238;53.304;6.606;2023-02-15T05:06:50;21.38;;;19.10;;
52284;SDS011;38238;53.304;6.606;2023-02-15T05:09:16;20.83;;;18.73;;
52284;SDS011;38238;53.304;6.606;2023-02-15T05:11:42;21.55;;;19.35;;
52284;SDS011;38238;53.304;6.606;2023-02-15T05:14:08;21.73;;;19.52;;
52284;SDS011;38238;53.304;6.606;2023-02-15T05:16:34;22.08;;;19.88;;
52284;SDS011;38238;53.304;6.606;2023-02-15T05:18:59;34.33;;;19.15;;
52284;SDS011;38238;53.304;6.606;2023-02-15T05:21:25;51.33;;;21.20;;
52284;SDS011;38238;53.304;6.606;2023-02-15T05:23:51;125.97;;;26.35;;
52284;SDS011;38238;53.304;6.606;2023-02-15T05:26:18;94.68;;;25.27;;
52284;SDS011;38238;53.304;6.606;2023-02-15T05:29:04;93.07;;;25.73;;
52284;SDS011;38238;53.304;6.606;2023-02-15T05:31:30;52.78;;;23.13;;
52284;SDS011;38238;53.304;6.606;2023-02-15T05:33:57;88.53;;;24.65;;
52284;SDS011;38238;53.304;6.606;2023-02-15T05:36:22;67.80;;;23.90;;
52284;SDS011;38238;53.304;6.606;2023-02-15T05:38:48;77.97;;;25.17;;
52284;SDS011;38238;53.304;6.606;2023-02-15T05:41:14;92.68;;;27.40;;
52284;SDS011;38238;53.304;6.606;2023-02-15T05:43:39;56.53;;;25.45;;
52284;SDS011;38238;53.304;6.606;2023-02-15T05:46:05;79.47;;;25.67;;
52284;SDS011;38238;53.304;6.606;2023-02-15T05:48:32;32.78;;;22.70;;
52284;SDS011;38238;53.304;6.606;2023-02-15T05:51:02;38.13;;;23.10;;
52284;SDS011;38238;53.304;6.606;2023-02-15T05:53:30;77.65;;;26.38;;
52284;SDS011;38238;53.304;6.606;2023-02-15T05:55:58;129.25;;;27.65;;
52284;SDS011;38238;53.304;6.606;2023-02-15T05:58:25;62.78;;;25.10;;
52284;SDS011;38238;53.304;6.606;2023-02-15T06:00:52;99.10;;;26.88;;
52284;SDS011;38238;53.304;6.606;2023-02-15T06:03:18;87.15;;;26.02;;
52284;SDS011;38238;53.304;6.606;2023-02-15T06:05:44;122.47;;;29.33;;
52284;SDS011;38238;53.304;6.606;2023-02-15T06:08:09;58.58;;;24.42;;
52284;SDS011;38238;53.304;6.606;2023-02-15T06:10:35;45.92;;;22.33;;
52284;SDS011;38238;53.304;6.606;2023-02-15T06:13:01;31.70;;;21.75;;
52284;SDS011;38238;53.304;6.606;2023-02-15T06:15:27;70.13;;;24.83;;
52284;SDS011;38238;53.304;6.606;2023-02-15T06:17:52;44.22;;;24.15;;
52284;SDS011;38238;53.304;6.606;2023-02-15T06:20:18;95.10;;;26.95;;
52284;SDS011;38238;53.304;6.606;2023-02-15T06:22:44;111.75;;;27.83;;
52284;SDS011;38238;53.304;6.606;2023-02-15T06:25:09;104.97;;;28.48;;
52284;SDS011;38238;53.304;6.606;2023-02-15T06:27:36;92.75;;;25.17;;
52284;SDS011;38238;53.304;6.606;2023-02-15T06:30:04;95.25;;;28.65;;
52284;SDS011;38238;53.304;6.606;2023-02-15T06:32:30;144.68;;;32.35;;
52284;SDS011;38238;53.304;6.606;2023-02-15T06:34:56;76.70;;;25.83;;
52284;SDS011;38238;53.304;6.606;2023-02-15T06:37:22;45.20;;;23.90;;
52284;SDS011;38238;53.304;6.606;2023-02-15T06:39:48;43.85;;;25.83;;
52284;SDS011;38238;53.304;6.606;2023-02-15T06:42:13;161.02;;;33.25;;
52284;SDS011;38238;53.304;6.606;2023-02-15T06:44:39;106.88;;;30.33;;
52284;SDS011;38238;53.304;6.606;2023-02-15T06:47:05;119.35;;;31.20;;
52284;SDS011;38238;53.304;6.606;2023-02-15T06:49:30;53.03;;;26.52;;
52284;SDS011;38238;53.304;6.606;2023-02-15T06:51:56;29.55;;;25.50;;
52284;SDS011;38238;53.304;6.606;2023-02-15T06:54:22;74.60;;;28.95;;
52284;SDS011;38238;53.304;6.606;2023-02-15T06:56:47;40.58;;;25.85;;
52284;SDS011;38238;53.304;6.606;2023-02-15T06:59:13;65.63;;;28.08;;
52284;SDS011;38238;53.304;6.606;2023-02-15T07:01:39;55.80;;;26.92;;
52284;SDS011;38238;53.304;6.606;2023-02-15T07:04:04;60.00;;;28.50;;
52284;SDS011;38238;53.304;6.606;2023-02-15T07:06:31;49.33;;;28.30;;
52284;SDS011;38238;53.304;6.606;2023-02-15T07:09:00;42.85;;;28.05;;
52284;SDS011;38238;53.304;6.606;2023-02-15T07:11:26;47.10;;;30.25;;
52284;SDS011;38238;53.304;6.606;2023-02-15T07:14:10;177.27;;;36.70;;
52284;SDS011;38238;53.304;6.606;2023-02-15T07:16:36;60.83;;;26.92;;
52284;SDS011;38238;53.304;6.606;2023-02-15T07:19:01;102.32;;;30.85;;
52284;SDS011;38238;53.304;6.606;2023-02-15T07:21:27;83.63;;;30.85;;
52284;SDS011;38238;53.304;6.606;2023-02-15T07:23:55;82.10;;;28.40;;
52284;SDS011;38238;53.304;6.606;2023-02-15T07:26:22;55.05;;;27.95;;
52284;SDS011;38238;53.304;6.606;2023-02-15T07:28:47;76.15;;;29.38;;
52284;SDS011;38238;53.304;6.606;2023-02-15T07:31:13;58.55;;;28.83;;
52284;SDS011;38238;53.304;6.606;2023-02-15T07:33:39;70.35;;;29.13;;
52284;SDS011;38238;53.304;6.606;2023-02-15T07:36:05;55.15;;;29.40;;
52284;SDS011;38238;53.304;6.606;2023-02-15T07:38:35;38.90;;;28.67;;
52284;SDS011;38238;53.304;6.606;2023-02-15T07:41:06;46.58;;;28.38;;
52284;SDS011;38238;53.304;6.606;2023-02-15T07:43:35;43.05;;;28.45;;
52284;SDS011;38238;53.304;6.606;2023-02-15T07:46:03;47.60;;;30.17;;
52284;SDS011;38238;53.304;6.606;2023-02-15T07:48:30;31.05;;;27.65;;
52284;SDS011;38238;53.304;6.606;2023-02-15T07:51:00;35.65;;;30.17;;
52284;SDS011;38238;53.304;6.606;2023-02-15T07:53:27;38.75;;;28.33;;
52284;SDS011;38238;53.304;6.606;2023-02-15T07:55:53;35.20;;;29.45;;
52284;SDS011;38238;53.304;6.606;2023-02-15T07:58:20;33.95;;;29.67;;
52284;SDS011;38238;53.304;6.606;2023-02-15T08:00:45;34.22;;;29.60;;
52284;SDS011;38238;53.304;6.606;2023-02-15T08:03:25;33.80;;;29.67;;
52284;SDS011;38238;53.304;6.606;2023-02-15T08:05:57;37.88;;;30.70;;
52284;SDS011;38238;53.304;6.606;2023-02-15T08:08:27;35.35;;;29.35;;
52284;SDS011;38238;53.304;6.606;2023-02-15T08:19:16;35.28;;;29.38;;
52284;SDS011;38238;53.304;6.606;2023-02-15T08:21:50;36.85;;;28.23;;
52284;SDS011;38238;53.304;6.606;2023-02-15T08:24:19;37.92;;;31.52;;
52284;SDS011;38238;53.304;6.606;2023-02-15T08:26:46;36.92;;;28.80;;
52284;SDS011;38238;53.304;6.606;2023-02-15T08:29:13;41.47;;;30.13;;
52284;SDS011;38238;53.304;6.606;2023-02-15T08:31:40;34.28;;;27.55;;
52284;SDS011;38238;53.304;6.606;2023-02-15T08:34:07;35.95;;;29.42;;
52284;SDS011;38238;53.304;6.606;2023-02-15T08:36:34;34.47;;;28.33;;
52284;SDS011;38238;53.304;6.606;2023-02-15T08:39:00;35.47;;;29.50;;
52284;SDS011;38238;53.304;6.606;2023-02-15T08:41:29;34.95;;;28.95;;
52284;SDS011;38238;53.304;6.606;2023-02-15T08:43:57;42.60;;;30.85;;
52284;SDS011;38238;53.304;6.606;2023-02-15T08:46:27;39.00;;;30.00;;
52284;SDS011;38238;53.304;6.606;2023-02-15T08:48:54;40.05;;;31.42;;
52284;SDS011;38238;53.304;6.606;2023-02-15T08:51:31;36.20;;;29.52;;
52284;SDS011;38238;53.304;6.606;2023-02-15T08:54:02;35.45;;;30.65;;
52284;SDS011;38238;53.304;6.606;2023-02-15T08:56:32;39.47;;;31.70;;
52284;SDS011;38238;53.304;6.606;2023-02-15T08:59:01;37.08;;;31.95;;
52284;SDS011;38238;53.304;6.606;2023-02-15T09:01:29;41.42;;;35.80;;
52284;SDS011;38238;53.304;6.606;2023-02-15T09:03:56;40.70;;;36.33;;
52284;SDS011;38238;53.304;6.606;2023-02-15T09:06:23;40.47;;;36.17;;
52284;SDS011;38238;53.304;6.606;2023-02-15T09:08:50;41.53;;;37.20;;
52284;SDS011;38238;53.304;6.606;2023-02-15T09:11:18;47.05;;;42.45;;
52284;SDS011;38238;53.304;6.606;2023-02-15T09:13:53;44.95;;;40.65;;
52284;SDS011;38238;53.304;6.606;2023-02-15T09:16:21;46.50;;;41.97;;
52284;SDS011;38238;53.304;6.606;2023-02-15T09:18:49;43.55;;;38.97;;
52284;SDS011;38238;53.304;6.606;2023-02-15T09:21:16;43.08;;;38.00;;
52284;SDS011;38238;53.304;6.606;2023-02-15T09:23:45;43.45;;;38.63;;
52284;SDS011;38238;53.304;6.606;2023-02-15T09:26:12;47.95;;;43.17;;
52284;SDS011;38238;53.304;6.606;2023-02-15T09:28:42;50.10;;;45.25;;
52284;SDS011;38238;53.304;6.606;2023-02-15T09:34:09;50.85;;;45.85;;
52284;SDS011;38238;53.304;6.606;2023-02-15T09:36:36;47.25;;;42.60;;
52284;SDS011;38238;53.304;6.606;2023-02-15T09:39:10;47.05;;;42.40;;
52284;SDS011;38238;53.304;6.606;2023-02-15T10:00:59;48.28;;;43.90;;
52284;SDS011;38238;53.304;6.606;2023-02-15T10:06:28;45.88;;;40.92;;
52284;SDS011;38238;53.304;6.606;2023-02-15T10:12:06;42.67;;;37.80;;
52284;SDS011;38238;53.304;6.606;2023-02-15T10:14:32;41.55;;;35.90;;
52284;SDS011;38238;53.304;6.606;2023-02-15T10:26:18;44.53;;;32.72;;
52284;SDS011;38238;53.304;6.606;2023-02-15T10:29:05;41.95;;;34.20;;
52284;SDS011;38238;53.304;6.606;2023-02-15T10:47:38;34.58;;;28.77;;
52284;SDS011;38238;53.304;6.606;2023-02-15T10:56:12;31.88;;;27.23;;
52284;SDS011;38238;53.304;6.606;2023-02-15T11:06:34;31.60;;;26.63;;
52284;SDS011;38238;53.304;6.606;2023-02-15T11:09:10;31.33;;;26.35;;
52284;SDS011;38238;53.304;6.606;2023-02-15T11:11:41;31.60;;;25.83;;
52284;SDS011;38238;53.304;6.606;2023-02-15T11:14:13;34.53;;;27.98;;
52284;SDS011;38238;53.304;6.606;2023-02-15T11:16:40;30.55;;;26.55;;
52284;SDS011;38238;53.304;6.606;2023-02-15T11:19:15;32.15;;;26.75;;
52284;SDS011;38238;53.304;6.606;2023-02-15T11:21:45;35.30;;;27.48;;
52284;SDS011;38238;53.304;6.606;2023-02-15T11:24:16;33.80;;;27.50;;
52284;SDS011;38238;53.304;6.606;2023-02-15T11:26:59;34.33;;;27.90;;
52284;SDS011;38238;53.304;6.606;2023-02-15T11:32:39;32.95;;;27.15;;
52284;SDS011;38238;53.304;6.606;2023-02-15T11:40:42;34.30;;;25.95;;
52284;SDS011;38238;53.304;6.606;2023-02-15T11:46:01;33.78;;;28.15;;
52284;SDS011;38238;53.304;6.606;2023-02-15T11:48:26;32.05;;;26.42;;
52284;SDS011;38238;53.304;6.606;2023-02-15T11:50:56;35.20;;;27.85;;
52284;SDS011;38238;53.304;6.606;2023-02-15T11:53:22;34.53;;;27.60;;
52284;SDS011;38238;53.304;6.606;2023-02-15T11:55:53;32.80;;;26.95;;
52284;SDS011;38238;53.304;6.606;2023-02-15T11:58:36;35.80;;;27.95;;
52284;SDS011;38238;53.304;6.606;2023-02-15T12:01:27;36.35;;;27.38;;
52284;SDS011;38238;53.304;6.606;2023-02-15T12:09:46;36.70;;;27.92;;
52284;SDS011;38238;53.304;6.606;2023-02-15T12:12:36;38.58;;;28.75;;
52284;SDS011;38238;53.304;6.606;2023-02-15T12:15:04;33.60;;;27.33;;
52284;SDS011;38238;53.304;6.606;2023-02-15T12:17:52;34.55;;;27.70;;
52284;SDS011;38238;53.304;6.606;2023-02-15T12:22:50;31.67;;;27.02;;
52284;SDS011;38238;53.304;6.606;2023-02-15T12:25:36;35.65;;;26.85;;
52284;SDS011;38238;53.304;6.606;2023-02-15T12:28:15;34.88;;;26.40;;
52284;SDS011;38238;53.304;6.606;2023-02-15T12:30:52;34.53;;;26.63;;
52284;SDS011;38238;53.304;6.606;2023-02-15T12:33:25;36.45;;;26.95;;
52284;SDS011;38238;53.304;6.606;2023-02-15T12:36:08;34.03;;;26.75;;
52284;SDS011;38238;53.304;6.606;2023-02-15T12:38:42;34.00;;;25.92;;
52284;SDS011;38238;53.304;6.606;2023-02-15T12:43:48;34.58;;;25.17;;
52284;SDS011;38238;53.304;6.606;2023-02-15T12:46:40;35.30;;;26.40;;
52284;SDS011;38238;53.304;6.606;2023-02-15T12:54:43;33.85;;;26.05;;
52284;SDS011;38238;53.304;6.606;2023-02-15T12:57:20;36.33;;;26.02;;
52284;SDS011;38238;53.304;6.606;2023-02-15T12:59:55;33.67;;;24.52;;
52284;SDS011;38238;53.304;6.606;2023-02-15T13:03:19;33.85;;;24.75;;
52284;SDS011;38238;53.304;6.606;2023-02-15T13:05:52;36.38;;;27.48;;
52284;SDS011;38238;53.304;6.606;2023-02-15T13:08:30;40.78;;;27.45;;
52284;SDS011;38238;53.304;6.606;2023-02-15T13:11:19;37.55;;;27.92;;
52284;SDS011;38238;53.304;6.606;2023-02-15T13:14:32;33.50;;;26.73;;
52284;SDS011;38238;53.304;6.606;2023-02-15T13:16:57;37.08;;;26.88;;
52284;SDS011;38238;53.304;6.606;2023-02-15T13:21:54;36.47;;;27.15;;
52284;SDS011;38238;53.304;6.606;2023-02-15T13:24:22;36.67;;;27.30;;
52284;SDS011;38238;53.304;6.606;2023-02-15T13:26:49;38.20;;;28.27;;
52284;SDS011;38238;53.304;6.606;2023-02-15T13:29:28;36.63;;;28.63;;
52284;SDS011;38238;53.304;6.606;2023-02-15T13:31:57;40.40;;;31.60;;
52284;SDS011;38238;53.304;6.606;2023-02-15T13:34:31;41.13;;;30.50;;
52284;SDS011;38238;53.304;6.606;2023-02-15T13:40:13;40.72;;;30.50;;
52284;SDS011;38238;53.304;6.606;2023-02-15T13:45:36;41.67;;;31.88;;
52284;SDS011;38238;53.304;6.606;2023-02-15T13:51:21;39.42;;;31.15;;
52284;SDS011;38238;53.304;6.606;2023-02-15T14:04:52;40.97;;;30.95;;
52284;SDS011;38238;53.304;6.606;2023-02-15T14:07:30;38.70;;;31.15;;
52284;SDS011;38238;53.304;6.606;2023-02-15T14:18:41;40.67;;;31.60;;
52284;SDS011;38238;53.304;6.606;2023-02-15T14:21:34;37.97;;;30.13;;
52284;SDS011;38238;53.304;6.606;2023-02-15T14:24:33;37.72;;;30.40;;
52284;SDS011;38238;53.304;6.606;2023-02-15T14:30:20;38.45;;;29.75;;
52284;SDS011;38238;53.304;6.606;2023-02-15T14:32:49;38.65;;;31.58;;
52284;SDS011;38238;53.304;6.606;2023-02-15T14:35:23;37.08;;;29.63;;
52284;SDS011;38238;53.304;6.606;2023-02-15T14:38:02;40.75;;;29.65;;
52284;SDS011;38238;53.304;6.606;2023-02-15T14:49:19;40.67;;;29.55;;
52284;SDS011;38238;53.304;6.606;2023-02-15T14:57:20;36.03;;;29.88;;
52284;SDS011;38238;53.304;6.606;2023-02-15T14:59:46;36.17;;;29.05;;
52284;SDS011;38238;53.304;6.606;2023-02-15T15:08:01;37.42;;;28.98;;
52284;SDS011;38238;53.304;6.606;2023-02-15T15:10:34;38.90;;;28.65;;
52284;SDS011;38238;53.304;6.606;2023-02-15T15:15:55;34.97;;;28.33;;
52284;SDS011;38238;53.304;6.606;2023-02-15T15:21:09;36.13;;;28.23;;
52284;SDS011;38238;53.304;6.606;2023-02-15T15:23:42;36.05;;;27.00;;
52284;SDS011;38238;53.304;6.606;2023-02-15T15:36:54;35.50;;;25.63;;
52284;SDS011;38238;53.304;6.606;2023-02-15T15:42:42;36.97;;;29.02;;
52284;SDS011;38238;53.304;6.606;2023-02-15T15:50:53;36.80;;;29.40;;
52284;SDS011;38238;53.304;6.606;2023-02-15T15:53:22;33.78;;;26.25;;
52284;SDS011;38238;53.304;6.606;2023-02-15T15:55:51;37.28;;;27.67;;
52284;SDS011;38238;53.304;6.606;2023-02-15T15:58:22;34.50;;;28.00;;
52284;SDS011;38238;53.304;6.606;2023-02-15T16:00:50;35.67;;;26.05;;
52284;SDS011;38238;53.304;6.606;2023-02-15T16:05:47;34.22;;;27.77;;
52284;SDS011;38238;53.304;6.606;2023-02-15T16:08:25;32.95;;;28.38;;
52284;SDS011;38238;53.304;6.606;2023-02-15T16:10:51;37.65;;;28.90;;
52284;SDS011;38238;53.304;6.606;2023-02-15T16:13:16;38.88;;;29.60;;
52284;SDS011;38238;53.304;6.606;2023-02-15T16:15:43;39.45;;;28.23;;
52284;SDS011;38238;53.304;6.606;2023-02-15T16:18:15;40.83;;;29.65;;
52284;SDS011;38238;53.304;6.606;2023-02-15T16:20:47;32.58;;;27.02;;
52284;SDS011;38238;53.304;6.606;2023-02-15T16:28:32;40.80;;;30.55;;
52284;SDS011;38238;53.304;6.606;2023-02-15T16:31:05;36.22;;;29.58;;
52284;SDS011;38238;53.304;6.606;2023-02-15T16:33:38;40.97;;;29.02;;
52284;SDS011;38238;53.304;6.606;2023-02-15T16:36:06;40.85;;;29.30;;
52284;SDS011;38238;53.304;6.606;2023-02-15T16:41:08;35.88;;;28.35;;
52284;SDS011;38238;53.304;6.606;2023-02-15T16:43:36;36.22;;;28.58;;
52284;SDS011;38238;53.304;6.606;2023-02-15T16:46:05;40.55;;;29.58;;
52284;SDS011;38238;53.304;6.606;2023-02-15T16:48:38;41.67;;;30.15;;
52284;SDS011;38238;53.304;6.606;2023-02-15T16:51:06;39.20;;;29.15;;
52284;SDS011;38238;53.304;6.606;2023-02-15T16:53:32;39.55;;;28.55;;
52284;SDS011;38238;53.304;6.606;2023-02-15T16:55:59;40.17;;;30.20;;
52284;SDS011;38238;53.304;6.606;2023-02-15T16:58:31;36.03;;;29.10;;
52284;SDS011;38238;53.304;6.606;2023-02-15T17:01:01;41.60;;;28.40;;
52284;SDS011;38238;53.304;6.606;2023-02-15T17:03:27;40.47;;;29.88;;
52284;SDS011;38238;53.304;6.606;2023-02-15T17:05:55;39.75;;;27.70;;
52284;SDS011;38238;53.304;6.606;2023-02-15T17:08:32;37.65;;;28.40;;
52284;SDS011;38238;53.304;6.606;2023-02-15T17:13:30;45.53;;;31.88;;
52284;SDS011;38238;53.304;6.606;2023-02-15T17:20:59;40.30;;;28.45;;
52284;SDS011;38238;53.304;6.606;2023-02-15T17:23:34;41.15;;;28.80;;
52284;SDS011;38238;53.304;6.606;2023-02-15T17:26:12;43.92;;;30.80;;
52284;SDS011;38238;53.304;6.606;2023-02-15T17:28:58;42.55;;;31.10;;
52284;SDS011;38238;53.304;6.606;2023-02-15T17:31:45;41.05;;;30.38;;
52284;SDS011;38238;53.304;6.606;2023-02-15T17:34:41;39.60;;;29.15;;
52284;SDS011;38238;53.304;6.606;2023-02-15T17:37:41;39.53;;;29.40;;
52284;SDS011;38238;53.304;6.606;2023-02-15T17:42:47;44.15;;;29.17;;
52284;SDS011;38238;53.304;6.606;2023-02-15T17:45:14;42.28;;;28.25;;
52284;SDS011;38238;53.304;6.606;2023-02-15T17:47:40;39.55;;;28.02;;
52284;SDS011;38238;53.304;6.606;2023-02-15T17:50:06;39.35;;;28.70;;
52284;SDS011;38238;53.304;6.606;2023-02-15T17:52:32;40.60;;;29.52;;
52284;SDS011;38238;53.304;6.606;2023-02-15T17:55:01;39.25;;;29.35;;
52284;SDS011;38238;53.304;6.606;2023-02-15T17:57:55;42.15;;;29.30;;
52284;SDS011;38238;53.304;6.606;2023-02-15T18:00:21;37.22;;;28.63;;
52284;SDS011;38238;53.304;6.606;2023-02-15T18:03:07;38.67;;;29.52;;
52284;SDS011;38238;53.304;6.606;2023-02-15T18:05:54;38.75;;;28.88;;
52284;SDS011;38238;53.304;6.606;2023-02-15T18:08:39;38.80;;;28.20;;
52284;SDS011;38238;53.304;6.606;2023-02-15T18:11:23;40.53;;;30.77;;
52284;SDS011;38238;53.304;6.606;2023-02-15T18:14:01;41.03;;;28.05;;
52284;SDS011;38238;53.304;6.606;2023-02-15T18:16:32;40.63;;;30.75;;
52284;SDS011;38238;53.304;6.606;2023-02-15T18:19:00;40.85;;;30.17;;
52284;SDS011;38238;53.304;6.606;2023-02-15T18:21:26;40.05;;;31.02;;
52284;SDS011;38238;53.304;6.606;2023-02-15T18:23:52;41.22;;;29.65;;
52284;SDS011;38238;53.304;6.606;2023-02-15T18:26:19;39.22;;;27.98;;
52284;SDS011;38238;53.304;6.606;2023-02-15T18:28:47;39.85;;;30.83;;
52284;SDS011;38238;53.304;6.606;2023-02-15T18:31:13;40.67;;;29.95;;
52284;SDS011;38238;53.304;6.606;2023-02-15T18:33:43;43.60;;;31.90;;
52284;SDS011;38238;53.304;6.606;2023-02-15T18:36:22;40.95;;;31.67;;